sensor_id;sensor_type;location;lat;lon;timestamp;P1;durP1;ratioP1;P2;durP2;ratioP2
20056;SDS011;10189;49.546;7.906;2022-12-16T00:03:36;15.43;;;9.25;;
20056;SDS011;10189;49.546;7.906;2022-12-16T00:06:04;15.65;;;10.15;;
20056;SDS011;10189;49.546;7.906;2022-12-16T00:08:33;18.25;;;11.60;;
20056;SDS011;10189;49.546;7.906;2022-12-16T00:11:02;13.18;;;8.57;;
20056;SDS011;10189;49.546;7.906;2022-12-16T00:13:30;14.32;;;8.27;;
20056;SDS011;10189;49.546;7.906;2022-12-16T00:15:58;12.70;;;7.68;;
20056;SDS011;10189;49.546;7.906;2022-12-16T00:18:29;12.43;;;7.93;;
20056;SDS011;10189;49.546;7.906;2022-12-16T00:20:54;14.40;;;8.10;;
20056;SDS011;10189;49.546;7.906;2022-12-16T00:23:21;11.90;;;6.60;;
20056;SDS011;10189;49.546;7.906;2022-12-16T00:25:47;10.05;;;6.68;;
20056;SDS011;10189;49.546;7.906;2022-12-16T00:28:14;11.75;;;6.50;;
20056;SDS011;10189;49.546;7.906;2022-12-16T00:30:42;13.90;;;6.85;;
20056;SDS011;10189;49.546;7.906;2022-12-16T00:33:12;10.30;;;6.13;;
20056;SDS011;10189;49.546;7.906;2022-12-16T00:35:37;11.63;;;6.25;;
20056;SDS011;10189;49.546;7.906;2022-12-16T00:38:03;10.73;;;6.47;;
20056;SDS011;10189;49.546;7.906;2022-12-16T00:40:29;11.82;;;6.65;;
20056;SDS011;10189;49.546;7.906;2022-12-16T00:42:55;11.93;;;6.35;;
20056;SDS011;10189;49.546;7.906;2022-12-16T00:45:21;13.32;;;8.27;;
20056;SDS011;10189;49.546;7.906;2022-12-16T00:47:47;14.50;;;8.65;;
20056;SDS011;10189;49.546;7.906;2022-12-16T00:50:15;14.85;;;8.90;;
20056;SDS011;10189;49.546;7.906;2022-12-16T00:52:42;15.20;;;8.43;;
20056;SDS011;10189;49.546;7.906;2022-12-16T00:55:08;23.50;;;12.80;;
20056;SDS011;10189;49.546;7.906;2022-12-16T00:57:35;24.88;;;13.52;;
20056;SDS011;10189;49.546;7.906;2022-12-16T01:00:00;23.90;;;13.52;;
20056;SDS011;10189;49.546;7.906;2022-12-16T01:02:29;27.00;;;13.57;;
20056;SDS011;10189;49.546;7.906;2022-12-16T01:04:56;26.90;;;13.57;;
20056;SDS011;10189;49.546;7.906;2022-12-16T01:07:22;22.88;;;12.27;;
20056;SDS011;10189;49.546;7.906;2022-12-16T01:09:48;24.05;;;12.30;;
20056;SDS011;10189;49.546;7.906;2022-12-16T01:12:14;23.05;;;12.73;;
20056;SDS011;10189;49.546;7.906;2022-12-16T01:14:40;22.38;;;11.60;;
20056;SDS011;10189;49.546;7.906;2022-12-16T01:17:06;23.90;;;12.00;;
20056;SDS011;10189;49.546;7.906;2022-12-16T01:19:31;21.08;;;10.73;;
20056;SDS011;10189;49.546;7.906;2022-12-16T01:21:57;21.92;;;11.75;;
20056;SDS011;10189;49.546;7.906;2022-12-16T01:24:23;19.90;;;10.57;;
20056;SDS011;10189;49.546;7.906;2022-12-16T01:26:49;22.92;;;11.20;;
20056;SDS011;10189;49.546;7.906;2022-12-16T01:29:15;21.50;;;11.00;;
20056;SDS011;10189;49.546;7.906;2022-12-16T01:31:40;16.60;;;9.50;;
20056;SDS011;10189;49.546;7.906;2022-12-16T01:34:07;16.73;;;9.48;;
20056;SDS011;10189;49.546;7.906;2022-12-16T01:36:33;19.88;;;9.77;;
20056;SDS011;10189;49.546;7.906;2022-12-16T01:38:59;17.45;;;9.15;;
20056;SDS011;10189;49.546;7.906;2022-12-16T01:41:25;17.30;;;9.35;;
20056;SDS011;10189;49.546;7.906;2022-12-16T01:43:51;15.80;;;8.63;;
20056;SDS011;10189;49.546;7.906;2022-12-16T01:46:20;18.13;;;10.27;;
20056;SDS011;10189;49.546;7.906;2022-12-16T01:48:59;20.73;;;11.45;;
20056;SDS011;10189;49.546;7.906;2022-12-16T01:51:36;19.30;;;9.68;;
20056;SDS011;10189;49.546;7.906;2022-12-16T01:54:07;17.85;;;9.50;;
20056;SDS011;10189;49.546;7.906;2022-12-16T01:56:54;16.85;;;9.25;;
20056;SDS011;10189;49.546;7.906;2022-12-16T01:59:30;19.65;;;10.20;;
20056;SDS011;10189;49.546;7.906;2022-12-16T02:04:27;17.55;;;8.55;;
20056;SDS011;10189;49.546;7.906;2022-12-16T02:06:53;14.70;;;7.30;;
20056;SDS011;10189;49.546;7.906;2022-12-16T02:09:19;18.90;;;9.48;;
20056;SDS011;10189;49.546;7.906;2022-12-16T02:11:58;14.68;;;8.15;;
20056;SDS011;10189;49.546;7.906;2022-12-16T02:17:52;17.13;;;8.80;;
20056;SDS011;10189;49.546;7.906;2022-12-16T02:32:19;20.23;;;10.50;;
20056;SDS011;10189;49.546;7.906;2022-12-16T02:35:04;21.80;;;10.35;;
20056;SDS011;10189;49.546;7.906;2022-12-16T02:43:03;25.60;;;12.00;;
20056;SDS011;10189;49.546;7.906;2022-12-16T02:45:39;22.05;;;12.13;;
20056;SDS011;10189;49.546;7.906;2022-12-16T02:48:06;24.27;;;11.70;;
20056;SDS011;10189;49.546;7.906;2022-12-16T02:50:34;23.80;;;12.10;;
20056;SDS011;10189;49.546;7.906;2022-12-16T02:53:04;22.23;;;11.77;;
20056;SDS011;10189;49.546;7.906;2022-12-16T02:55:58;21.98;;;10.88;;
20056;SDS011;10189;49.546;7.906;2022-12-16T02:58:34;24.77;;;12.23;;
20056;SDS011;10189;49.546;7.906;2022-12-16T03:06:31;23.83;;;12.57;;
20056;SDS011;10189;49.546;7.906;2022-12-16T03:09:01;24.45;;;12.52;;
20056;SDS011;10189;49.546;7.906;2022-12-16T03:11:34;24.08;;;11.75;;
20056;SDS011;10189;49.546;7.906;2022-12-16T03:14:04;25.67;;;12.35;;
20056;SDS011;10189;49.546;7.906;2022-12-16T03:16:32;25.90;;;12.32;;
20056;SDS011;10189;49.546;7.906;2022-12-16T03:19:00;26.83;;;12.73;;
20056;SDS011;10189;49.546;7.906;2022-12-16T03:21:35;27.20;;;13.52;;
20056;SDS011;10189;49.546;7.906;2022-12-16T03:24:11;32.13;;;14.90;;
20056;SDS011;10189;49.546;7.906;2022-12-16T03:26:50;25.02;;;12.65;;
20056;SDS011;10189;49.546;7.906;2022-12-16T03:35:31;23.48;;;10.15;;
20056;SDS011;10189;49.546;7.906;2022-12-16T03:38:02;18.80;;;10.43;;
20056;SDS011;10189;49.546;7.906;2022-12-16T03:40:33;22.40;;;11.27;;
20056;SDS011;10189;49.546;7.906;2022-12-16T03:43:04;22.52;;;11.18;;
20056;SDS011;10189;49.546;7.906;2022-12-16T03:45:32;23.02;;;10.77;;
20056;SDS011;10189;49.546;7.906;2022-12-16T03:48:08;21.90;;;10.57;;
20056;SDS011;10189;49.546;7.906;2022-12-16T03:50:37;24.85;;;10.52;;
20056;SDS011;10189;49.546;7.906;2022-12-16T03:53:05;23.35;;;11.70;;
20056;SDS011;10189;49.546;7.906;2022-12-16T03:55:31;27.88;;;12.95;;
20056;SDS011;10189;49.546;7.906;2022-12-16T03:57:57;25.70;;;12.88;;
20056;SDS011;10189;49.546;7.906;2022-12-16T04:00:24;24.23;;;11.70;;
20056;SDS011;10189;49.546;7.906;2022-12-16T04:02:50;37.28;;;19.08;;
20056;SDS011;10189;49.546;7.906;2022-12-16T04:05:16;26.35;;;12.55;;
20056;SDS011;10189;49.546;7.906;2022-12-16T04:07:43;24.85;;;10.85;;
20056;SDS011;10189;49.546;7.906;2022-12-16T04:10:09;23.63;;;11.77;;
20056;SDS011;10189;49.546;7.906;2022-12-16T04:12:36;20.70;;;10.32;;
20056;SDS011;10189;49.546;7.906;2022-12-16T04:15:20;22.40;;;10.18;;
20056;SDS011;10189;49.546;7.906;2022-12-16T04:18:07;23.15;;;10.68;;
20056;SDS011;10189;49.546;7.906;2022-12-16T04:20:59;21.08;;;10.48;;
20056;SDS011;10189;49.546;7.906;2022-12-16T04:23:46;23.50;;;10.57;;
20056;SDS011;10189;49.546;7.906;2022-12-16T04:26:35;24.63;;;11.43;;
20056;SDS011;10189;49.546;7.906;2022-12-16T04:29:21;22.65;;;11.80;;
20056;SDS011;10189;49.546;7.906;2022-12-16T04:31:48;22.13;;;11.07;;
20056;SDS011;10189;49.546;7.906;2022-12-16T04:34:15;25.55;;;10.68;;
20056;SDS011;10189;49.546;7.906;2022-12-16T04:36:51;21.77;;;10.55;;
20056;SDS011;10189;49.546;7.906;2022-12-16T04:39:44;24.48;;;10.88;;
20056;SDS011;10189;49.546;7.906;2022-12-16T04:42:28;23.38;;;10.55;;
20056;SDS011;10189;49.546;7.906;2022-12-16T04:45:13;19.75;;;10.13;;
20056;SDS011;10189;49.546;7.906;2022-12-16T04:47:58;19.92;;;9.93;;
20056;SDS011;10189;49.546;7.906;2022-12-16T04:50:43;18.10;;;9.85;;
20056;SDS011;10189;49.546;7.906;2022-12-16T04:53:28;21.80;;;9.63;;
20056;SDS011;10189;49.546;7.906;2022-12-16T04:56:12;19.50;;;9.15;;
20056;SDS011;10189;49.546;7.906;2022-12-16T04:58:57;18.02;;;9.25;;
20056;SDS011;10189;49.546;7.906;2022-12-16T05:01:41;20.05;;;9.98;;
20056;SDS011;10189;49.546;7.906;2022-12-16T05:04:26;20.05;;;9.90;;
20056;SDS011;10189;49.546;7.906;2022-12-16T05:07:12;23.10;;;10.40;;
20056;SDS011;10189;49.546;7.906;2022-12-16T05:09:56;21.55;;;10.15;;
20056;SDS011;10189;49.546;7.906;2022-12-16T05:12:41;18.60;;;9.52;;
20056;SDS011;10189;49.546;7.906;2022-12-16T05:15:25;22.50;;;9.73;;
20056;SDS011;10189;49.546;7.906;2022-12-16T05:18:13;19.40;;;9.43;;
20056;SDS011;10189;49.546;7.906;2022-12-16T05:21:00;20.30;;;9.23;;
20056;SDS011;10189;49.546;7.906;2022-12-16T05:23:46;22.58;;;11.60;;
20056;SDS011;10189;49.546;7.906;2022-12-16T05:26:31;20.83;;;9.80;;
20056;SDS011;10189;49.546;7.906;2022-12-16T05:29:16;23.27;;;12.25;;
20056;SDS011;10189;49.546;7.906;2022-12-16T05:32:00;21.48;;;10.23;;
20056;SDS011;10189;49.546;7.906;2022-12-16T05:34:45;18.60;;;8.77;;
20056;SDS011;10189;49.546;7.906;2022-12-16T05:37:29;22.40;;;10.02;;
20056;SDS011;10189;49.546;7.906;2022-12-16T05:40:14;20.65;;;10.13;;
20056;SDS011;10189;49.546;7.906;2022-12-16T05:42:58;20.65;;;9.77;;
20056;SDS011;10189;49.546;7.906;2022-12-16T05:45:43;31.58;;;14.15;;
20056;SDS011;10189;49.546;7.906;2022-12-16T05:48:27;21.67;;;10.82;;
20056;SDS011;10189;49.546;7.906;2022-12-16T05:51:12;25.17;;;11.48;;
20056;SDS011;10189;49.546;7.906;2022-12-16T05:53:56;19.17;;;9.85;;
20056;SDS011;10189;49.546;7.906;2022-12-16T05:56:40;19.95;;;9.95;;
20056;SDS011;10189;49.546;7.906;2022-12-16T05:59:25;24.25;;;10.23;;
20056;SDS011;10189;49.546;7.906;2022-12-16T06:02:10;28.30;;;13.00;;
20056;SDS011;10189;49.546;7.906;2022-12-16T06:04:54;26.77;;;13.40;;
20056;SDS011;10189;49.546;7.906;2022-12-16T06:07:38;35.33;;;16.77;;
20056;SDS011;10189;49.546;7.906;2022-12-16T06:10:23;37.50;;;17.17;;
20056;SDS011;10189;49.546;7.906;2022-12-16T06:13:08;68.68;;;30.00;;
20056;SDS011;10189;49.546;7.906;2022-12-16T06:15:52;113.93;;;51.20;;
20056;SDS011;10189;49.546;7.906;2022-12-16T06:18:37;132.27;;;55.00;;
20056;SDS011;10189;49.546;7.906;2022-12-16T06:21:21;63.90;;;27.02;;
20056;SDS011;10189;49.546;7.906;2022-12-16T06:24:06;61.28;;;31.90;;
20056;SDS011;10189;49.546;7.906;2022-12-16T06:26:50;51.13;;;24.88;;
20056;SDS011;10189;49.546;7.906;2022-12-16T06:29:34;29.73;;;15.60;;
20056;SDS011;10189;49.546;7.906;2022-12-16T06:32:19;28.75;;;15.23;;
20056;SDS011;10189;49.546;7.906;2022-12-16T06:35:03;20.92;;;11.25;;
20056;SDS011;10189;49.546;7.906;2022-12-16T06:37:48;22.50;;;11.13;;
20056;SDS011;10189;49.546;7.906;2022-12-16T06:40:32;25.25;;;12.23;;
20056;SDS011;10189;49.546;7.906;2022-12-16T06:43:17;29.60;;;14.27;;
20056;SDS011;10189;49.546;7.906;2022-12-16T06:46:01;64.25;;;27.45;;
20056;SDS011;10189;49.546;7.906;2022-12-16T06:48:46;36.78;;;17.05;;
20056;SDS011;10189;49.546;7.906;2022-12-16T06:51:30;45.17;;;22.58;;
20056;SDS011;10189;49.546;7.906;2022-12-16T06:54:16;33.42;;;15.90;;
20056;SDS011;10189;49.546;7.906;2022-12-16T06:57:00;30.02;;;15.88;;
20056;SDS011;10189;49.546;7.906;2022-12-16T06:59:45;32.25;;;16.13;;
20056;SDS011;10189;49.546;7.906;2022-12-16T07:02:29;32.90;;;15.77;;
20056;SDS011;10189;49.546;7.906;2022-12-16T07:05:14;26.10;;;12.65;;
20056;SDS011;10189;49.546;7.906;2022-12-16T07:07:58;22.85;;;12.35;;
20056;SDS011;10189;49.546;7.906;2022-12-16T07:10:43;25.17;;;12.02;;
20056;SDS011;10189;49.546;7.906;2022-12-16T07:13:27;28.20;;;15.05;;
20056;SDS011;10189;49.546;7.906;2022-12-16T07:16:11;38.05;;;20.17;;
20056;SDS011;10189;49.546;7.906;2022-12-16T07:18:56;32.00;;;16.23;;
20056;SDS011;10189;49.546;7.906;2022-12-16T07:21:40;38.20;;;17.77;;
20056;SDS011;10189;49.546;7.906;2022-12-16T07:24:24;39.65;;;17.35;;
20056;SDS011;10189;49.546;7.906;2022-12-16T07:27:09;36.70;;;16.67;;
20056;SDS011;10189;49.546;7.906;2022-12-16T07:29:53;23.42;;;12.20;;
20056;SDS011;10189;49.546;7.906;2022-12-16T07:32:38;44.33;;;20.48;;
20056;SDS011;10189;49.546;7.906;2022-12-16T07:35:22;64.68;;;31.35;;
20056;SDS011;10189;49.546;7.906;2022-12-16T07:38:07;41.15;;;22.60;;
20056;SDS011;10189;49.546;7.906;2022-12-16T07:40:51;39.58;;;21.75;;
20056;SDS011;10189;49.546;7.906;2022-12-16T07:43:36;34.35;;;18.75;;
20056;SDS011;10189;49.546;7.906;2022-12-16T07:46:20;60.47;;;28.63;;
20056;SDS011;10189;49.546;7.906;2022-12-16T07:49:05;48.13;;;22.27;;
20056;SDS011;10189;49.546;7.906;2022-12-16T07:51:49;31.50;;;16.63;;
20056;SDS011;10189;49.546;7.906;2022-12-16T07:54:34;44.22;;;23.25;;
20056;SDS011;10189;49.546;7.906;2022-12-16T07:57:18;35.38;;;18.10;;
20056;SDS011;10189;49.546;7.906;2022-12-16T08:00:02;29.95;;;14.80;;
20056;SDS011;10189;49.546;7.906;2022-12-16T08:02:52;32.95;;;17.20;;
20056;SDS011;10189;49.546;7.906;2022-12-16T08:05:37;25.20;;;11.38;;
20056;SDS011;10189;49.546;7.906;2022-12-16T08:08:22;25.40;;;12.38;;
20056;SDS011;10189;49.546;7.906;2022-12-16T08:11:06;25.00;;;11.80;;
20056;SDS011;10189;49.546;7.906;2022-12-16T08:13:50;25.13;;;11.85;;
20056;SDS011;10189;49.546;7.906;2022-12-16T08:16:35;26.98;;;12.75;;
20056;SDS011;10189;49.546;7.906;2022-12-16T08:19:19;31.35;;;17.70;;
20056;SDS011;10189;49.546;7.906;2022-12-16T08:22:18;31.70;;;16.83;;
20056;SDS011;10189;49.546;7.906;2022-12-16T08:25:03;28.42;;;13.25;;
20056;SDS011;10189;49.546;7.906;2022-12-16T08:27:52;34.55;;;17.45;;
20056;SDS011;10189;49.546;7.906;2022-12-16T08:30:38;53.92;;;25.95;;
20056;SDS011;10189;49.546;7.906;2022-12-16T08:33:22;34.78;;;20.20;;
20056;SDS011;10189;49.546;7.906;2022-12-16T08:36:07;36.65;;;21.25;;
20056;SDS011;10189;49.546;7.906;2022-12-16T08:38:51;29.85;;;15.93;;
20056;SDS011;10189;49.546;7.906;2022-12-16T08:41:36;24.90;;;12.85;;
20056;SDS011;10189;49.546;7.906;2022-12-16T08:44:21;24.70;;;13.88;;
20056;SDS011;10189;49.546;7.906;2022-12-16T08:47:05;27.20;;;14.13;;
20056;SDS011;10189;49.546;7.906;2022-12-16T08:49:50;31.17;;;16.02;;
20056;SDS011;10189;49.546;7.906;2022-12-16T08:52:34;30.50;;;16.88;;
20056;SDS011;10189;49.546;7.906;2022-12-16T08:55:19;25.88;;;13.93;;
20056;SDS011;10189;49.546;7.906;2022-12-16T08:58:03;26.73;;;14.75;;
20056;SDS011;10189;49.546;7.906;2022-12-16T09:00:47;48.55;;;26.50;;
20056;SDS011;10189;49.546;7.906;2022-12-16T09:03:32;46.47;;;28.90;;
20056;SDS011;10189;49.546;7.906;2022-12-16T09:06:16;70.90;;;41.03;;
20056;SDS011;10189;49.546;7.906;2022-12-16T09:09:00;55.50;;;31.05;;
20056;SDS011;10189;49.546;7.906;2022-12-16T09:11:45;44.72;;;26.27;;
20056;SDS011;10189;49.546;7.906;2022-12-16T09:14:29;42.13;;;24.48;;
20056;SDS011;10189;49.546;7.906;2022-12-16T09:17:13;34.88;;;21.13;;
20056;SDS011;10189;49.546;7.906;2022-12-16T09:19:58;26.95;;;16.65;;
20056;SDS011;10189;49.546;7.906;2022-12-16T09:22:42;39.53;;;22.65;;
20056;SDS011;10189;49.546;7.906;2022-12-16T09:25:27;35.72;;;21.70;;
20056;SDS011;10189;49.546;7.906;2022-12-16T09:28:12;25.48;;;15.20;;
20056;SDS011;10189;49.546;7.906;2022-12-16T09:30:56;25.10;;;14.40;;
20056;SDS011;10189;49.546;7.906;2022-12-16T09:33:40;23.05;;;12.60;;
20056;SDS011;10189;49.546;7.906;2022-12-16T09:36:25;21.60;;;12.13;;
20056;SDS011;10189;49.546;7.906;2022-12-16T09:39:09;19.95;;;10.70;;
20056;SDS011;10189;49.546;7.906;2022-12-16T09:42:00;18.77;;;10.70;;
20056;SDS011;10189;49.546;7.906;2022-12-16T09:45:17;20.88;;;11.05;;
20056;SDS011;10189;49.546;7.906;2022-12-16T09:48:40;21.48;;;10.88;;
20056;SDS011;10189;49.546;7.906;2022-12-16T09:51:49;16.10;;;9.60;;
20056;SDS011;10189;49.546;7.906;2022-12-16T09:54:35;22.13;;;11.00;;
20056;SDS011;10189;49.546;7.906;2022-12-16T09:57:27;18.85;;;10.25;;
20056;SDS011;10189;49.546;7.906;2022-12-16T10:00:19;20.77;;;11.45;;
20056;SDS011;10189;49.546;7.906;2022-12-16T10:03:23;18.85;;;11.13;;
20056;SDS011;10189;49.546;7.906;2022-12-16T10:15:46;20.77;;;10.80;;
20056;SDS011;10189;49.546;7.906;2022-12-16T10:25:07;24.88;;;14.82;;
20056;SDS011;10189;49.546;7.906;2022-12-16T10:28:18;103.38;;;45.50;;
20056;SDS011;10189;49.546;7.906;2022-12-16T10:31:28;139.50;;;66.40;;
20056;SDS011;10189;49.546;7.906;2022-12-16T10:34:16;55.65;;;32.97;;
20056;SDS011;10189;49.546;7.906;2022-12-16T10:37:08;53.47;;;34.65;;
20056;SDS011;10189;49.546;7.906;2022-12-16T10:40:17;34.55;;;23.42;;
20056;SDS011;10189;49.546;7.906;2022-12-16T10:43:12;40.85;;;28.42;;
20056;SDS011;10189;49.546;7.906;2022-12-16T10:46:12;27.30;;;15.93;;
20056;SDS011;10189;49.546;7.906;2022-12-16T10:49:07;50.00;;;25.27;;
20056;SDS011;10189;49.546;7.906;2022-12-16T10:51:58;88.38;;;37.92;;
20056;SDS011;10189;49.546;7.906;2022-12-16T10:54:50;64.22;;;32.08;;
20056;SDS011;10189;49.546;7.906;2022-12-16T10:58:19;45.58;;;23.23;;
20056;SDS011;10189;49.546;7.906;2022-12-16T11:01:25;45.65;;;25.33;;
20056;SDS011;10189;49.546;7.906;2022-12-16T11:04:33;32.83;;;19.60;;
20056;SDS011;10189;49.546;7.906;2022-12-16T11:07:35;29.42;;;17.38;;
20056;SDS011;10189;49.546;7.906;2022-12-16T11:10:40;31.40;;;19.35;;
20056;SDS011;10189;49.546;7.906;2022-12-16T11:13:27;24.65;;;15.90;;
20056;SDS011;10189;49.546;7.906;2022-12-16T11:16:15;28.40;;;17.25;;
20056;SDS011;10189;49.546;7.906;2022-12-16T11:19:02;35.83;;;22.67;;
20056;SDS011;10189;49.546;7.906;2022-12-16T11:22:12;28.70;;;18.08;;
20056;SDS011;10189;49.546;7.906;2022-12-16T11:25:05;28.60;;;18.65;;
20056;SDS011;10189;49.546;7.906;2022-12-16T11:28:13;30.17;;;18.98;;
20056;SDS011;10189;49.546;7.906;2022-12-16T11:31:00;22.23;;;12.95;;
20056;SDS011;10189;49.546;7.906;2022-12-16T11:33:51;23.63;;;15.25;;
20056;SDS011;10189;49.546;7.906;2022-12-16T11:36:38;19.13;;;12.63;;
20056;SDS011;10189;49.546;7.906;2022-12-16T11:39:25;18.17;;;11.95;;
20056;SDS011;10189;49.546;7.906;2022-12-16T11:45:05;14.00;;;8.90;;
20056;SDS011;10189;49.546;7.906;2022-12-16T11:47:59;16.58;;;10.93;;
20056;SDS011;10189;49.546;7.906;2022-12-16T11:50:54;18.20;;;11.02;;
20056;SDS011;10189;49.546;7.906;2022-12-16T11:56:39;18.52;;;13.27;;
20056;SDS011;10189;49.546;7.906;2022-12-16T12:02:31;10.80;;;7.32;;
20056;SDS011;10189;49.546;7.906;2022-12-16T12:05:37;11.63;;;7.45;;
20056;SDS011;10189;49.546;7.906;2022-12-16T12:11:31;11.35;;;7.38;;
20056;SDS011;10189;49.546;7.906;2022-12-16T12:20:58;8.90;;;6.15;;
20056;SDS011;10189;49.546;7.906;2022-12-16T12:27:04;16.02;;;9.10;;
20056;SDS011;10189;49.546;7.906;2022-12-16T12:30:19;14.73;;;9.68;;
20056;SDS011;10189;49.546;7.906;2022-12-16T12:40:08;16.38;;;9.60;;
20056;SDS011;10189;49.546;7.906;2022-12-16T12:43:26;15.80;;;10.32;;
20056;SDS011;10189;49.546;7.906;2022-12-16T12:46:38;10.43;;;6.10;;
20056;SDS011;10189;49.546;7.906;2022-12-16T12:49:53;12.13;;;8.00;;
20056;SDS011;10189;49.546;7.906;2022-12-16T12:59:24;9.07;;;6.10;;
20056;SDS011;10189;49.546;7.906;2022-12-16T13:03:10;16.33;;;8.75;;
20056;SDS011;10189;49.546;7.906;2022-12-16T13:06:04;15.45;;;9.80;;
20056;SDS011;10189;49.546;7.906;2022-12-16T13:11:37;23.58;;;18.05;;
20056;SDS011;10189;49.546;7.906;2022-12-16T13:20:44;7.22;;;5.80;;
20056;SDS011;10189;49.546;7.906;2022-12-16T13:23:37;7.05;;;4.13;;
20056;SDS011;10189;49.546;7.906;2022-12-16T13:26:24;6.32;;;3.72;;
20056;SDS011;10189;49.546;7.906;2022-12-16T13:37:57;6.13;;;3.70;;
20056;SDS011;10189;49.546;7.906;2022-12-16T13:41:04;5.47;;;3.25;;
20056;SDS011;10189;49.546;7.906;2022-12-16T13:53:21;8.25;;;3.83;;
20056;SDS011;10189;49.546;7.906;2022-12-16T13:56:19;6.25;;;3.85;;
20056;SDS011;10189;49.546;7.906;2022-12-16T13:59:18;6.75;;;3.30;;
20056;SDS011;10189;49.546;7.906;2022-12-16T14:05:29;6.57;;;3.42;;
20056;SDS011;10189;49.546;7.906;2022-12-16T14:08:21;18.35;;;10.52;;
20056;SDS011;10189;49.546;7.906;2022-12-16T14:14:30;9.50;;;4.80;;
20056;SDS011;10189;49.546;7.906;2022-12-16T14:17:33;5.63;;;3.38;;
20056;SDS011;10189;49.546;7.906;2022-12-16T14:20:34;19.90;;;13.98;;
20056;SDS011;10189;49.546;7.906;2022-12-16T14:23:49;5.88;;;3.75;;
20056;SDS011;10189;49.546;7.906;2022-12-16T14:26:43;6.55;;;3.65;;
20056;SDS011;10189;49.546;7.906;2022-12-16T14:29:29;4.78;;;2.92;;
20056;SDS011;10189;49.546;7.906;2022-12-16T14:32:18;5.45;;;3.70;;
20056;SDS011;10189;49.546;7.906;2022-12-16T14:35:17;7.75;;;5.60;;
20056;SDS011;10189;49.546;7.906;2022-12-16T14:41:19;19.80;;;12.50;;
20056;SDS011;10189;49.546;7.906;2022-12-16T14:44:19;14.00;;;9.23;;
20056;SDS011;10189;49.546;7.906;2022-12-16T14:47:16;11.23;;;7.22;;
20056;SDS011;10189;49.546;7.906;2022-12-16T14:50:14;46.72;;;31.05;;
20056;SDS011;10189;49.546;7.906;2022-12-16T14:53:05;45.83;;;30.95;;
20056;SDS011;10189;49.546;7.906;2022-12-16T14:56:08;36.78;;;24.42;;
20056;SDS011;10189;49.546;7.906;2022-12-16T15:05:10;39.45;;;21.80;;
20056;SDS011;10189;49.546;7.906;2022-12-16T15:07:56;114.68;;;51.65;;
20056;SDS011;10189;49.546;7.906;2022-12-16T15:10:42;21.85;;;14.32;;
20056;SDS011;10189;49.546;7.906;2022-12-16T15:13:27;360.88;;;187.38;;
20056;SDS011;10189;49.546;7.906;2022-12-16T15:16:17;55.55;;;29.40;;
20056;SDS011;10189;49.546;7.906;2022-12-16T15:19:20;11.45;;;6.60;;
20056;SDS011;10189;49.546;7.906;2022-12-16T15:22:13;10.10;;;6.65;;
20056;SDS011;10189;49.546;7.906;2022-12-16T15:24:59;136.40;;;66.30;;
20056;SDS011;10189;49.546;7.906;2022-12-16T15:27:52;14.15;;;8.32;;
20056;SDS011;10189;49.546;7.906;2022-12-16T15:30:45;32.33;;;17.35;;
20056;SDS011;10189;49.546;7.906;2022-12-16T15:33:32;40.33;;;24.00;;
20056;SDS011;10189;49.546;7.906;2022-12-16T15:36:25;110.28;;;66.05;;
20056;SDS011;10189;49.546;7.906;2022-12-16T15:39:22;51.10;;;27.52;;
20056;SDS011;10189;49.546;7.906;2022-12-16T15:42:29;14.68;;;8.82;;
20056;SDS011;10189;49.546;7.906;2022-12-16T15:45:25;131.55;;;70.30;;
20056;SDS011;10189;49.546;7.906;2022-12-16T15:48:24;170.25;;;85.60;;
20056;SDS011;10189;49.546;7.906;2022-12-16T15:51:27;53.28;;;24.08;;
20056;SDS011;10189;49.546;7.906;2022-12-16T15:54:26;613.60;;;280.25;;
20056;SDS011;10189;49.546;7.906;2022-12-16T15:57:32;501.50;;;213.20;;
20056;SDS011;10189;49.546;7.906;2022-12-16T16:00:20;358.73;;;164.85;;
20056;SDS011;10189;49.546;7.906;2022-12-16T16:06:26;160.93;;;73.22;;
20056;SDS011;10189;49.546;7.906;2022-12-16T16:09:13;47.30;;;22.13;;
20056;SDS011;10189;49.546;7.906;2022-12-16T16:12:11;14.88;;;8.70;;
20056;SDS011;10189;49.546;7.906;2022-12-16T16:14:59;46.38;;;22.45;;
20056;SDS011;10189;49.546;7.906;2022-12-16T16:17:44;272.50;;;114.25;;
20056;SDS011;10189;49.546;7.906;2022-12-16T16:20:33;113.95;;;49.92;;
20056;SDS011;10189;49.546;7.906;2022-12-16T16:23:17;106.65;;;47.70;;
20056;SDS011;10189;49.546;7.906;2022-12-16T16:26:01;182.65;;;76.53;;
20056;SDS011;10189;49.546;7.906;2022-12-16T16:28:46;390.02;;;155.07;;
20056;SDS011;10189;49.546;7.906;2022-12-16T16:31:31;217.60;;;114.32;;
20056;SDS011;10189;49.546;7.906;2022-12-16T16:34:15;227.02;;;112.13;;
20056;SDS011;10189;49.546;7.906;2022-12-16T16:37:00;188.70;;;98.15;;
20056;SDS011;10189;49.546;7.906;2022-12-16T16:39:44;33.90;;;19.27;;
20056;SDS011;10189;49.546;7.906;2022-12-16T16:42:29;30.58;;;17.70;;
20056;SDS011;10189;49.546;7.906;2022-12-16T16:45:13;18.38;;;11.43;;
20056;SDS011;10189;49.546;7.906;2022-12-16T16:50:58;28.73;;;18.63;;
20056;SDS011;10189;49.546;7.906;2022-12-16T16:53:44;113.65;;;58.03;;
20056;SDS011;10189;49.546;7.906;2022-12-16T16:56:30;49.85;;;28.67;;
20056;SDS011;10189;49.546;7.906;2022-12-16T16:59:20;23.05;;;13.82;;
20056;SDS011;10189;49.546;7.906;2022-12-16T17:02:26;33.33;;;18.58;;
20056;SDS011;10189;49.546;7.906;2022-12-16T17:05:11;22.08;;;13.77;;
20056;SDS011;10189;49.546;7.906;2022-12-16T17:07:56;17.73;;;10.90;;
20056;SDS011;10189;49.546;7.906;2022-12-16T17:10:42;32.03;;;19.10;;
20056;SDS011;10189;49.546;7.906;2022-12-16T17:13:27;40.28;;;26.63;;
20056;SDS011;10189;49.546;7.906;2022-12-16T17:16:12;21.30;;;12.82;;
20056;SDS011;10189;49.546;7.906;2022-12-16T17:18:57;30.65;;;18.05;;
20056;SDS011;10189;49.546;7.906;2022-12-16T17:21:42;44.78;;;29.48;;
20056;SDS011;10189;49.546;7.906;2022-12-16T17:24:26;81.80;;;43.47;;
20056;SDS011;10189;49.546;7.906;2022-12-16T17:27:14;59.90;;;32.20;;
20056;SDS011;10189;49.546;7.906;2022-12-16T17:30:03;38.97;;;22.67;;
20056;SDS011;10189;49.546;7.906;2022-12-16T17:32:55;29.30;;;18.02;;
20056;SDS011;10189;49.546;7.906;2022-12-16T17:35:40;27.20;;;14.75;;
20056;SDS011;10189;49.546;7.906;2022-12-16T17:38:24;23.75;;;13.70;;
20056;SDS011;10189;49.546;7.906;2022-12-16T17:41:09;23.38;;;13.52;;
20056;SDS011;10189;49.546;7.906;2022-12-16T17:43:53;24.33;;;14.52;;
20056;SDS011;10189;49.546;7.906;2022-12-16T17:46:37;26.90;;;14.27;;
20056;SDS011;10189;49.546;7.906;2022-12-16T17:49:22;24.73;;;13.18;;
20056;SDS011;10189;49.546;7.906;2022-12-16T17:52:07;24.35;;;13.02;;
20056;SDS011;10189;49.546;7.906;2022-12-16T17:54:51;24.42;;;13.90;;
20056;SDS011;10189;49.546;7.906;2022-12-16T17:57:35;24.35;;;14.45;;
20056;SDS011;10189;49.546;7.906;2022-12-16T18:00:21;31.80;;;19.98;;
20056;SDS011;10189;49.546;7.906;2022-12-16T18:03:05;28.33;;;16.52;;
20056;SDS011;10189;49.546;7.906;2022-12-16T18:05:54;22.77;;;13.63;;
20056;SDS011;10189;49.546;7.906;2022-12-16T18:08:40;27.50;;;14.85;;
20056;SDS011;10189;49.546;7.906;2022-12-16T18:11:24;29.10;;;15.45;;
20056;SDS011;10189;49.546;7.906;2022-12-16T18:14:09;26.60;;;16.73;;
20056;SDS011;10189;49.546;7.906;2022-12-16T18:16:53;30.42;;;19.23;;
20056;SDS011;10189;49.546;7.906;2022-12-16T18:19:38;43.90;;;23.40;;
20056;SDS011;10189;49.546;7.906;2022-12-16T18:22:23;29.08;;;17.75;;